createdAt,value
2023-03-30T00:00:23.225Z,2.85
2023-03-30T00:02:53.955Z,2.72
2023-03-30T00:05:23.935Z,2.67
2023-03-30T00:07:51.066Z,2.30
2023-03-30T00:10:19.344Z,2.15
2023-03-30T00:12:47.992Z,2.28
2023-03-30T00:15:17.670Z,2.28
2023-03-30T00:17:44.986Z,2.72
2023-03-30T00:20:17.252Z,1.90
2023-03-30T00:22:48.582Z,2.50
2023-03-30T00:25:17.436Z,2.67
2023-03-30T00:27:44.616Z,2.20
2023-03-30T00:30:15.380Z,2.00
2023-03-30T00:33:00.706Z,2.58
2023-03-30T00:35:30.749Z,1.90
2023-03-30T00:38:04.277Z,2.45
2023-03-30T00:40:34.848Z,1.80
2023-03-30T00:43:07.803Z,1.75
2023-03-30T00:45:36.742Z,1.98
2023-03-30T00:48:15.852Z,1.63
2023-03-30T00:50:49.953Z,2.00
2023-03-30T00:53:47.713Z,2.40
2023-03-30T00:56:23.002Z,2.20
2023-03-30T00:58:50.611Z,2.42
2023-03-30T01:01:25.723Z,2.05
2023-03-30T01:03:52.990Z,2.47
2023-03-30T01:06:30.187Z,2.15
2023-03-30T01:08:59.866Z,2.00
2023-03-30T01:11:27.457Z,2.45
2023-03-30T01:14:02.065Z,2.00
2023-03-30T01:17:01.575Z,2.45
2023-03-30T01:19:49.224Z,2.25
2023-03-30T01:22:26.669Z,2.40
2023-03-30T01:24:58.641Z,2.40
2023-03-30T01:27:48.458Z,2.08
2023-03-30T01:30:37.590Z,1.80
2023-03-30T01:33:16.456Z,1.55
2023-03-30T01:35:46.290Z,1.60
2023-03-30T01:38:48.734Z,1.38
2023-03-30T01:41:37.536Z,1.33
2023-03-30T01:44:40.852Z,1.63
2023-03-30T01:47:22.606Z,1.20
2023-03-30T01:50:09.048Z,1.10
2023-03-30T01:52:54.483Z,1.30
2023-03-30T01:55:28.387Z,1.13
2023-03-30T01:58:03.217Z,1.30
2023-03-30T02:00:31.049Z,1.40
2023-03-30T02:03:06.755Z,1.00
2023-03-30T02:05:34.548Z,1.08
2023-03-30T02:08:07.528Z,0.95
2023-03-30T02:10:37.248Z,1.38
2023-03-30T02:13:05.373Z,1.38
2023-03-30T02:15:41.797Z,1.20
2023-03-30T02:18:09.713Z,1.50
2023-03-30T02:20:36.849Z,1.35
2023-03-30T02:23:09.290Z,1.40
2023-03-30T02:25:38.678Z,1.30
2023-03-30T02:28:07.801Z,1.30
2023-03-30T02:30:41.146Z,1.27
2023-03-30T02:33:13.759Z,1.40
2023-03-30T02:36:08.068Z,1.70
2023-03-30T02:38:47.577Z,1.15
2023-03-30T02:41:28.936Z,1.20
2023-03-30T02:44:14.616Z,1.08
2023-03-30T02:47:07.212Z,1.27
2023-03-30T02:50:06.143Z,1.20
2023-03-30T02:52:52.607Z,1.10
2023-03-30T02:55:22.390Z,1.23
2023-03-30T02:57:58.333Z,1.35
2023-03-30T03:00:42.062Z,1.33
2023-03-30T03:03:33.028Z,1.27
2023-03-30T03:06:02.858Z,1.10
2023-03-30T03:08:34.548Z,1.08
2023-03-30T03:11:07.478Z,1.10
2023-03-30T03:13:40.681Z,1.33
2023-03-30T03:16:12.215Z,1.50
2023-03-30T03:18:42.645Z,1.10
2023-03-30T03:21:16.180Z,0.98
2023-03-30T03:23:48.396Z,1.23
2023-03-30T03:26:15.378Z,1.27
2023-03-30T03:28:42.920Z,1.33
2023-03-30T03:31:13.432Z,1.10
2023-03-30T03:33:40.159Z,1.40
2023-03-30T03:36:11.106Z,1.20
2023-03-30T03:38:38.168Z,1.08
2023-03-30T03:41:05.161Z,1.23
2023-03-30T03:43:32.212Z,1.30
2023-03-30T03:45:59.007Z,0.95
2023-03-30T03:48:25.815Z,1.00
2023-03-30T03:50:55.038Z,1.30
2023-03-30T03:53:22.730Z,1.35
2023-03-30T03:55:49.504Z,1.58
2023-03-30T03:58:16.924Z,1.50
2023-03-30T04:00:44.311Z,1.60
2023-03-30T04:03:12.333Z,1.25
2023-03-30T04:05:39.624Z,1.27
2023-03-30T04:08:09.186Z,1.67
2023-03-30T04:10:38.303Z,1.48
2023-03-30T04:13:05.087Z,1.85
2023-03-30T04:15:34.060Z,1.65
2023-03-30T04:18:05.416Z,1.30
2023-03-30T04:20:33.243Z,1.80
2023-03-30T04:23:01.941Z,1.70
2023-03-30T04:25:29.269Z,2.08
2023-03-30T04:27:57.000Z,2.10
2023-03-30T04:30:26.749Z,1.95
2023-03-30T04:33:03.813Z,1.33
2023-03-30T04:35:36.111Z,1.60
2023-03-30T04:38:02.969Z,1.73
2023-03-30T04:40:29.797Z,1.42
2023-03-30T04:43:02.233Z,1.33
2023-03-30T04:45:30.504Z,1.98
2023-03-30T04:48:00.361Z,1.60
2023-03-30T04:50:27.108Z,1.70
2023-03-30T04:52:53.890Z,1.30
2023-03-30T04:55:20.471Z,1.73
2023-03-30T04:57:47.125Z,1.70
2023-03-30T05:00:14.508Z,1.73
2023-03-30T05:02:41.398Z,1.70
2023-03-30T05:05:08.669Z,1.80
2023-03-30T05:07:35.523Z,1.83
2023-03-30T05:10:02.109Z,1.73
2023-03-30T05:12:28.743Z,1.65
2023-03-30T05:14:55.346Z,2.00
2023-03-30T05:17:21.966Z,1.88
2023-03-30T05:19:48.701Z,2.03
2023-03-30T05:22:16.419Z,2.25
2023-03-30T05:24:43.067Z,2.15
2023-03-30T05:27:09.673Z,1.88
2023-03-30T05:29:36.400Z,1.67
2023-03-30T05:32:03.254Z,1.88
2023-03-30T05:34:30.134Z,1.48
2023-03-30T05:36:58.916Z,1.90
2023-03-30T05:39:25.592Z,2.08
2023-03-30T05:41:52.508Z,2.55
2023-03-30T05:44:21.869Z,2.78
2023-03-30T05:46:49.182Z,2.20
2023-03-30T05:49:16.068Z,2.20
2023-03-30T05:51:44.924Z,2.30
2023-03-30T05:54:14.721Z,2.30
2023-03-30T05:56:45.961Z,2.50
2023-03-30T05:59:13.128Z,2.60
2023-03-30T06:01:40.205Z,2.13
2023-03-30T06:04:08.680Z,2.15
2023-03-30T06:06:37.840Z,1.88
2023-03-30T06:09:04.902Z,2.15
2023-03-30T06:11:36.356Z,2.05
2023-03-30T06:14:03.205Z,2.05
2023-03-30T06:16:29.953Z,1.67
2023-03-30T06:18:59.352Z,1.95
2023-03-30T06:21:25.912Z,1.90
2023-03-30T06:23:52.584Z,1.73
2023-03-30T06:26:19.850Z,1.50
2023-03-30T06:28:48.946Z,1.90
2023-03-30T06:31:18.039Z,1.73
2023-03-30T06:33:45.100Z,1.75
2023-03-30T06:36:14.741Z,1.98
2023-03-30T06:38:43.663Z,2.15
2023-03-30T06:41:11.981Z,2.22
2023-03-30T06:43:39.562Z,2.55
2023-03-30T06:46:07.355Z,1.98
2023-03-30T06:48:34.470Z,3.22
2023-03-30T06:51:02.490Z,3.20
2023-03-30T06:53:30.152Z,3.57
2023-03-30T06:56:01.452Z,2.80
2023-03-30T06:58:28.487Z,2.40
2023-03-30T07:00:55.677Z,2.22
2023-03-30T07:03:30.050Z,2.15
2023-03-30T07:05:59.034Z,2.40
2023-03-30T07:08:25.723Z,2.85
2023-03-30T07:10:54.916Z,2.38
2023-03-30T07:13:23.767Z,2.50
2023-03-30T07:15:52.339Z,2.42
2023-03-30T07:18:19.331Z,2.60
2023-03-30T07:20:48.714Z,1.75
2023-03-30T07:23:19.640Z,2.90
2023-03-30T07:25:47.059Z,2.42
2023-03-30T07:28:16.356Z,3.22
2023-03-30T07:30:43.449Z,2.38
2023-03-30T07:33:10.384Z,2.05
2023-03-30T07:35:43.160Z,1.63
2023-03-30T07:38:13.207Z,2.47
2023-03-30T07:40:42.488Z,3.25
2023-03-30T07:43:09.089Z,1.73
2023-03-30T07:45:35.735Z,2.53
2023-03-30T07:48:05.119Z,1.83
2023-03-30T07:50:31.770Z,2.20
2023-03-30T07:52:58.327Z,2.42
2023-03-30T07:55:25.049Z,2.30
2023-03-30T07:57:52.548Z,2.40
2023-03-30T08:00:23.815Z,2.38
2023-03-30T08:02:53.352Z,2.45
2023-03-30T08:05:20.184Z,2.28
2023-03-30T08:07:47.040Z,2.15
2023-03-30T08:10:14.433Z,2.38
2023-03-30T08:12:43.450Z,2.35
2023-03-30T08:15:12.940Z,2.40
2023-03-30T08:17:39.606Z,2.80
2023-03-30T08:20:11.466Z,2.80
2023-03-30T08:22:38.137Z,2.97
2023-03-30T08:25:07.972Z,2.75
2023-03-30T08:27:34.622Z,2.28
2023-03-30T08:30:02.128Z,2.58
2023-03-30T08:32:28.823Z,2.80
2023-03-30T08:34:55.657Z,4.30
2023-03-30T08:37:22.683Z,3.20
2023-03-30T08:39:49.336Z,3.75
2023-03-30T08:42:46.801Z,3.15
2023-03-30T08:45:16.409Z,2.80
2023-03-30T08:47:49.043Z,2.33
2023-03-30T08:50:31.600Z,2.53
2023-03-30T08:52:58.830Z,2.17
2023-03-30T08:55:49.600Z,2.33
2023-03-30T08:58:16.097Z,2.33
2023-03-30T09:00:54.161Z,2.13
2023-03-30T09:03:53.272Z,1.80
2023-03-30T09:06:31.845Z,3.13
2023-03-30T09:09:01.495Z,2.47
2023-03-30T09:11:35.122Z,2.20
2023-03-30T09:14:12.762Z,2.50
2023-03-30T09:16:52.614Z,2.47
2023-03-30T09:19:28.512Z,2.38
2023-03-30T09:21:57.690Z,2.58
2023-03-30T09:24:27.766Z,2.70
2023-03-30T09:27:07.563Z,2.00
2023-03-30T09:29:46.864Z,2.30
2023-03-30T09:32:42.257Z,3.28
2023-03-30T09:35:19.214Z,2.53
2023-03-30T09:37:48.309Z,2.28
2023-03-30T09:40:42.041Z,2.00
2023-03-30T09:43:22.142Z,3.05
2023-03-30T09:45:48.908Z,2.80
2023-03-30T09:48:16.941Z,2.97
2023-03-30T09:50:45.925Z,2.50
2023-03-30T09:53:26.939Z,2.42
2023-03-30T09:56:21.310Z,2.75
2023-03-30T09:58:50.630Z,2.00
2023-03-30T10:01:20.606Z,2.67
2023-03-30T10:04:38.716Z,2.90
2023-03-30T10:06:58.714Z,3.55
2023-03-30T10:09:30.059Z,2.17
2023-03-30T10:11:58.468Z,2.90
2023-03-30T10:14:35.776Z,5.15
2023-03-30T10:17:04.460Z,2.35
2023-03-30T10:19:37.155Z,3.10
2023-03-30T10:22:17.436Z,2.53
2023-03-30T10:24:53.223Z,2.50
2023-03-30T10:27:25.590Z,2.50
2023-03-30T10:29:55.545Z,2.33
2023-03-30T10:32:31.693Z,2.50
2023-03-30T10:35:02.088Z,2.72
2023-03-30T10:37:38.647Z,2.13
2023-03-30T10:40:37.274Z,2.97
2023-03-30T10:43:06.903Z,2.40
2023-03-30T10:45:48.184Z,3.15
2023-03-30T10:48:57.293Z,2.55
2023-03-30T10:51:33.052Z,3.92
2023-03-30T10:54:27.264Z,2.75
2023-03-30T10:57:09.284Z,3.83
2023-03-30T10:59:38.888Z,3.03
2023-03-30T11:02:51.601Z,2.63
2023-03-30T11:05:32.589Z,2.67
2023-03-30T11:08:32.435Z,2.47
2023-03-30T11:11:00.519Z,3.50
2023-03-30T11:13:33.091Z,3.20
2023-03-30T11:16:07.993Z,2.55
2023-03-30T11:18:38.688Z,2.35
2023-03-30T11:21:08.390Z,2.50
2023-03-30T11:23:50.262Z,2.20
2023-03-30T11:26:23.725Z,2.42
2023-03-30T11:28:59.684Z,2.20
2023-03-30T11:31:35.430Z,2.30
2023-03-30T11:34:34.460Z,1.80
2023-03-30T11:37:12.830Z,3.42
2023-03-30T11:43:05.930Z,1.90
2023-03-30T11:46:25.506Z,2.10
2023-03-30T11:49:13.553Z,1.80
2023-03-30T11:52:11.103Z,2.33
2023-03-30T11:55:42.556Z,1.80
2023-03-30T11:58:17.962Z,1.98
2023-03-30T12:00:53.576Z,1.95
2023-03-30T12:03:35.633Z,2.60
2023-03-30T12:06:11.398Z,2.25
2023-03-30T12:09:02.950Z,2.47
2023-03-30T12:11:50.863Z,2.60
2023-03-30T12:14:23.407Z,1.60
2023-03-30T12:16:55.630Z,2.10
2023-03-30T12:19:30.128Z,1.70
2023-03-30T12:22:08.697Z,2.00
2023-03-30T12:25:06.207Z,1.80
2023-03-30T12:27:37.420Z,1.60
2023-03-30T12:30:27.012Z,2.00
2023-03-30T12:33:00.304Z,2.00
2023-03-30T12:35:51.036Z,2.00
2023-03-30T12:38:22.019Z,2.17
2023-03-30T12:41:20.726Z,1.98
2023-03-30T12:43:59.671Z,2.45
2023-03-30T12:47:18.406Z,1.70
2023-03-30T12:49:57.508Z,2.10
2023-03-30T12:52:42.775Z,2.38
2023-03-30T12:55:27.415Z,2.08
2023-03-30T12:57:53.931Z,1.92
2023-03-30T13:00:29.902Z,1.98
2023-03-30T13:03:18.426Z,2.78
2023-03-30T13:05:49.588Z,2.17
2023-03-30T13:08:21.871Z,2.17
2023-03-30T13:10:48.654Z,2.40
2023-03-30T13:13:23.941Z,2.00
2023-03-30T13:15:54.784Z,2.05
2023-03-30T13:18:35.910Z,2.33
2023-03-30T13:21:26.258Z,2.28
2023-03-30T13:24:22.176Z,2.22
2023-03-30T13:26:54.079Z,2.28
2023-03-30T13:29:24.026Z,2.00
2023-03-30T13:31:58.040Z,2.35
2023-03-30T13:34:58.581Z,2.42
2023-03-30T13:37:39.863Z,2.67
2023-03-30T13:40:39.501Z,2.05
2023-03-30T13:43:48.023Z,2.78
2023-03-30T13:46:26.838Z,2.67
2023-03-30T13:49:21.524Z,2.58
2023-03-30T13:51:49.244Z,1.45
2023-03-30T13:54:32.202Z,2.55
2023-03-30T13:57:11.931Z,2.03
2023-03-30T13:59:43.700Z,2.45
2023-03-30T14:02:16.933Z,2.47
2023-03-30T14:04:49.185Z,2.05
2023-03-30T14:07:18.943Z,2.05
2023-03-30T14:10:06.347Z,2.25
2023-03-30T14:12:39.843Z,2.40
2023-03-30T14:15:35.662Z,1.90
2023-03-30T14:18:04.679Z,2.05
2023-03-30T14:20:31.283Z,1.98
2023-03-30T14:23:00.487Z,1.88
2023-03-30T14:25:29.982Z,1.77
2023-03-30T14:28:01.809Z,2.00
2023-03-30T14:30:29.650Z,1.90
2023-03-30T14:33:05.899Z,1.63
2023-03-30T14:35:33.493Z,2.80
2023-03-30T14:38:13.725Z,1.92
2023-03-30T14:40:43.936Z,1.45
2023-03-30T14:43:27.577Z,1.67
2023-03-30T14:45:58.495Z,2.00
2023-03-30T14:48:38.147Z,1.67
2023-03-30T14:51:20.514Z,1.90
2023-03-30T14:53:48.088Z,1.42
2023-03-30T14:56:17.360Z,1.88
2023-03-30T14:58:47.528Z,2.13
2023-03-30T15:01:17.973Z,1.60
2023-03-30T15:03:48.340Z,1.95
2023-03-30T15:06:22.591Z,1.80
2023-03-30T15:08:50.740Z,1.70
2023-03-30T15:11:26.300Z,2.25
2023-03-30T15:13:59.076Z,1.60
2023-03-30T15:16:31.549Z,1.95
2023-03-30T15:19:11.757Z,1.50
2023-03-30T15:21:41.383Z,1.73
2023-03-30T15:24:17.233Z,1.10
2023-03-30T15:26:48.407Z,1.80
2023-03-30T15:29:18.304Z,1.30
2023-03-30T15:31:58.884Z,1.20
2023-03-30T15:34:28.012Z,1.58
2023-03-30T15:36:57.891Z,1.20
2023-03-30T15:39:33.572Z,1.30
2023-03-30T15:42:04.507Z,1.25
2023-03-30T15:44:41.275Z,1.55
2023-03-30T15:47:18.049Z,1.63
2023-03-30T15:49:50.765Z,1.50
2023-03-30T15:52:26.157Z,1.77
2023-03-30T15:54:56.220Z,1.63
2023-03-30T15:57:28.096Z,2.25
2023-03-30T16:00:01.570Z,1.90
2023-03-30T16:02:31.300Z,1.55
2023-03-30T16:05:00.630Z,2.08
2023-03-30T16:07:33.234Z,1.77
2023-03-30T16:09:59.865Z,1.88
2023-03-30T16:12:29.719Z,2.45
2023-03-30T16:14:56.795Z,2.33
2023-03-30T16:17:23.721Z,1.88
2023-03-30T16:19:50.369Z,1.80
2023-03-30T16:22:16.986Z,2.05
2023-03-30T16:24:43.682Z,1.80
2023-03-30T16:27:12.022Z,1.67
2023-03-30T16:29:38.964Z,1.90
2023-03-30T16:32:05.962Z,1.73
2023-03-30T16:34:32.758Z,1.95
2023-03-30T16:36:59.417Z,1.77
2023-03-30T16:39:28.950Z,1.77
2023-03-30T16:41:58.886Z,1.80
2023-03-30T16:44:25.670Z,1.90
2023-03-30T16:46:53.055Z,1.40
2023-03-30T16:49:22.336Z,1.75
2023-03-30T16:51:49.529Z,1.33
2023-03-30T16:54:29.484Z,1.60
2023-03-30T16:56:59.073Z,1.50
2023-03-30T16:59:30.789Z,1.90
2023-03-30T17:01:57.760Z,1.23
2023-03-30T17:04:24.429Z,1.70
2023-03-30T17:06:51.142Z,1.55
2023-03-30T17:09:19.700Z,1.50
2023-03-30T17:11:50.795Z,1.70
2023-03-30T17:14:18.120Z,2.10
2023-03-30T17:16:49.529Z,1.63
2023-03-30T17:19:16.488Z,1.80
2023-03-30T17:21:43.649Z,1.65
2023-03-30T17:24:15.143Z,1.75
2023-03-30T17:26:42.162Z,1.42
2023-03-30T17:29:09.801Z,1.38
2023-03-30T17:31:39.330Z,1.27
2023-03-30T17:34:08.478Z,1.00
2023-03-30T17:36:35.183Z,1.02
2023-03-30T17:39:05.194Z,1.77
2023-03-30T17:41:35.296Z,1.80
2023-03-30T17:44:09.072Z,1.40
2023-03-30T17:46:36.074Z,1.25
2023-03-30T17:49:08.249Z,1.17
2023-03-30T17:51:34.807Z,1.48
2023-03-30T17:54:01.397Z,1.83
2023-03-30T17:56:28.227Z,1.48
2023-03-30T17:58:54.785Z,1.20
2023-03-30T18:01:23.928Z,1.40
2023-03-30T18:03:50.863Z,1.63
2023-03-30T18:06:17.669Z,1.52
2023-03-30T18:08:46.806Z,1.45
2023-03-30T18:11:13.465Z,1.65
2023-03-30T18:13:40.031Z,1.73
2023-03-30T18:16:06.986Z,1.88
2023-03-30T18:18:33.703Z,1.95
2023-03-30T18:21:03.130Z,1.52
2023-03-30T18:23:31.677Z,1.45
2023-03-30T18:25:58.309Z,1.77
2023-03-30T18:28:26.697Z,1.40
2023-03-30T18:30:57.375Z,1.35
2023-03-30T18:33:27.514Z,1.63
2023-03-30T18:35:56.850Z,1.58
2023-03-30T18:38:25.270Z,1.83
2023-03-30T18:40:58.087Z,1.75
2023-03-30T18:43:26.655Z,1.55
2023-03-30T18:45:57.938Z,1.50
2023-03-30T18:48:27.682Z,1.75
2023-03-30T18:50:55.070Z,1.58
2023-03-30T18:53:27.071Z,1.85
2023-03-30T18:56:01.879Z,1.60
2023-03-30T18:58:30.533Z,1.77
2023-03-30T19:01:00.935Z,2.30
2023-03-30T19:03:28.937Z,2.20
2023-03-30T19:05:58.434Z,2.33
2023-03-30T19:08:26.166Z,2.30
2023-03-30T19:10:57.562Z,2.10
2023-03-30T19:13:27.426Z,1.77
2023-03-30T19:15:58.076Z,1.73
2023-03-30T19:18:27.168Z,1.35
2023-03-30T19:20:59.144Z,1.60
2023-03-30T19:23:25.829Z,2.00
2023-03-30T19:25:53.222Z,2.08
2023-03-30T19:28:19.895Z,2.40
2023-03-30T19:30:51.394Z,2.33
2023-03-30T19:33:19.861Z,2.28
2023-03-30T19:35:46.726Z,2.10
2023-03-30T19:38:15.532Z,2.63
2023-03-30T19:40:42.584Z,2.13
2023-03-30T19:43:09.815Z,2.67
2023-03-30T19:45:36.744Z,2.40
2023-03-30T19:48:04.134Z,2.10
2023-03-30T19:50:31.755Z,1.98
2023-03-30T19:52:58.989Z,2.42
2023-03-30T19:55:25.850Z,2.15
2023-03-30T19:57:52.464Z,1.92
2023-03-30T20:00:20.510Z,2.15
2023-03-30T20:02:53.158Z,2.03
2023-03-30T20:05:21.534Z,2.58
2023-03-30T20:07:48.892Z,2.80
2023-03-30T20:10:22.085Z,2.58
2023-03-30T20:12:49.858Z,2.08
2023-03-30T20:15:17.865Z,2.15
2023-03-30T20:17:47.389Z,1.90
2023-03-30T20:20:17.121Z,2.35
2023-03-30T20:22:47.067Z,2.25
2023-03-30T20:25:16.805Z,2.75
2023-03-30T20:27:43.395Z,2.20
2023-03-30T20:30:11.684Z,2.28
2023-03-30T20:32:38.472Z,2.17
2023-03-30T20:35:09.269Z,2.00
2023-03-30T20:37:35.969Z,2.35
2023-03-30T20:40:09.746Z,2.40
2023-03-30T20:42:40.000Z,2.33
2023-03-30T20:45:08.398Z,2.13
2023-03-30T20:47:35.406Z,2.72
2023-03-30T20:50:01.998Z,2.38
2023-03-30T20:52:29.333Z,3.78
2023-03-30T20:54:56.372Z,2.65
2023-03-30T20:57:24.151Z,2.53
2023-03-30T20:59:53.179Z,2.10
2023-03-30T21:02:20.505Z,2.28
2023-03-30T21:04:47.591Z,2.25
2023-03-30T21:07:16.387Z,2.13
2023-03-30T21:09:43.139Z,2.60
2023-03-30T21:12:10.464Z,2.22
2023-03-30T21:14:37.232Z,2.33
2023-03-30T21:17:04.673Z,2.75
2023-03-30T21:19:31.881Z,2.85
2023-03-30T21:22:00.398Z,2.13
2023-03-30T21:24:27.810Z,1.95
2023-03-30T21:26:54.776Z,2.53
2023-03-30T21:29:22.099Z,2.10
2023-03-30T21:31:49.537Z,2.17
2023-03-30T21:34:18.581Z,2.58
2023-03-30T21:36:45.892Z,3.03
2023-03-30T21:39:12.882Z,2.53
2023-03-30T21:41:39.753Z,2.55
2023-03-30T21:44:06.641Z,2.33
2023-03-30T21:46:33.538Z,2.58
2023-03-30T21:49:03.048Z,2.80
2023-03-30T21:51:31.677Z,3.22
2023-03-30T21:53:58.934Z,2.22
2023-03-30T21:56:30.363Z,1.83
2023-03-30T21:58:58.096Z,2.60
2023-03-30T22:01:27.267Z,2.50
2023-03-30T22:03:55.648Z,2.42
2023-03-30T22:06:27.590Z,2.17
2023-03-30T22:08:54.330Z,2.38
2023-03-30T22:11:23.807Z,2.58
2023-03-30T22:13:52.180Z,2.00
2023-03-30T22:16:28.495Z,2.70
2023-03-30T22:18:58.087Z,2.05
2023-03-30T22:21:32.270Z,2.20
2023-03-30T22:24:02.910Z,2.17
2023-03-30T22:26:29.708Z,2.50
2023-03-30T22:28:57.758Z,2.70
2023-03-30T22:31:24.556Z,1.88
2023-03-30T22:33:53.417Z,1.75
2023-03-30T22:36:25.464Z,1.75
2023-03-30T22:38:52.679Z,2.15
2023-03-30T22:41:24.800Z,1.88
2023-03-30T22:43:56.278Z,1.88
2023-03-30T22:46:24.535Z,2.28
2023-03-30T22:48:55.975Z,1.95
2023-03-30T22:51:26.549Z,2.20
2023-03-30T22:54:00.274Z,2.40
2023-03-30T22:56:28.954Z,2.40
2023-03-30T22:58:56.060Z,1.80
2023-03-30T23:01:26.071Z,1.63
2023-03-30T23:03:55.511Z,2.20
2023-03-30T23:06:24.704Z,2.05
2023-03-30T23:08:52.833Z,2.45
2023-03-30T23:11:21.705Z,1.95
2023-03-30T23:13:49.094Z,2.30
2023-03-30T23:16:16.022Z,1.95
2023-03-30T23:18:42.640Z,2.00
2023-03-30T23:21:11.264Z,2.20
2023-03-30T23:23:39.014Z,2.03
2023-03-30T23:26:09.980Z,2.03
2023-03-30T23:28:39.081Z,2.13
2023-03-30T23:31:16.694Z,2.60
2023-03-30T23:33:43.728Z,1.90
2023-03-30T23:36:16.995Z,1.58
2023-03-30T23:38:46.635Z,1.92
2023-03-30T23:41:15.218Z,2.30
2023-03-30T23:43:41.936Z,1.98
2023-03-30T23:46:09.900Z,2.03
2023-03-30T23:48:39.231Z,2.42
2023-03-30T23:51:08.750Z,2.33
2023-03-30T23:53:40.209Z,2.38
2023-03-30T23:56:17.731Z,2.47
2023-03-30T23:58:44.915Z,2.17
